Deer Park, Texas
Current Conditions -  °F | °C
As of 2:50 AM on Monday 20 Oct 2014 (Local Time) from KEFD Reporting Station
Scattered Clouds Scattered Clouds  
Wind Chill: 68°   Ceiling: Unl
Heat Index: 68°   Visibility: 7mi
Dew Point: 66°   Wind: 0mph
Humidity: 94%   Direction: NA
Pressure: 30.03"   Gusts: NA
Location:  29.69°N, 95.12°W
Report Text: KEFD 200750Z 00000KT 7SM SCT240 20/19 A3003
Loading
Personal Weather Stations






























Interactive Weather Map
Tropical Storm Tracking
New forecast layout! Learn more

10-Day Weather Forecast

Advertisements
Track Severe Weather on mobile